Gainesville, Missouri
Current Conditions -  °F | °C
As of 7:53 PM on Monday 20 Oct 2014 (Local Time) from KBPK Reporting Station
Clear Clear  
Wind Chill: 64°   Ceiling: Unl
Heat Index: 64°   Visibility: 9mi
Dew Point: 58°   Wind: 3mph
Humidity: 80%   Direction: 250°WSW
Pressure: 30.02"   Gusts: NA
Location:  36.6°N, 92.43°W
Report Text: KBPK 210053Z AUTO 25003KT 9SM CLR 18/14 A3002 RMK AO2 SLP161 T01780144
Loading
Personal Weather Stations






























Interactive Weather Map
Tropical Storm Tracking
New forecast layout! Learn more

10-Day Weather Forecast

Advertisements
Track Severe Weather on mobile